sensor_id;sensor_type;location;lat;lon;timestamp;P1;durP1;ratioP1;P2;durP2;ratioP2
73670;SDS011;61968;48.178;11.566;2023-05-01T00:01:20;2.78;;;2.55;;
73670;SDS011;61968;48.178;11.566;2023-05-01T00:03:48;3.40;;;2.22;;
73670;SDS011;61968;48.178;11.566;2023-05-01T00:06:14;4.13;;;2.45;;
73670;SDS011;61968;48.178;11.566;2023-05-01T00:08:41;3.05;;;2.05;;
73670;SDS011;61968;48.178;11.566;2023-05-01T00:11:07;2.88;;;2.10;;
73670;SDS011;61968;48.178;11.566;2023-05-01T00:13:36;2.42;;;2.22;;
73670;SDS011;61968;48.178;11.566;2023-05-01T00:16:06;3.53;;;2.45;;
73670;SDS011;61968;48.178;11.566;2023-05-01T00:18:33;3.28;;;2.50;;
73670;SDS011;61968;48.178;11.566;2023-05-01T00:21:01;2.00;;;1.85;;
73670;SDS011;61968;48.178;11.566;2023-05-01T00:23:28;2.88;;;2.47;;
73670;SDS011;61968;48.178;11.566;2023-05-01T00:25:54;2.42;;;2.20;;
73670;SDS011;61968;48.178;11.566;2023-05-01T00:28:21;2.75;;;2.40;;
73670;SDS011;61968;48.178;11.566;2023-05-01T00:30:47;2.40;;;2.20;;
73670;SDS011;61968;48.178;11.566;2023-05-01T00:33:14;4.00;;;2.40;;
73670;SDS011;61968;48.178;11.566;2023-05-01T00:35:42;3.25;;;2.38;;
73670;SDS011;61968;48.178;11.566;2023-05-01T00:38:10;2.35;;;2.10;;
73670;SDS011;61968;48.178;11.566;2023-05-01T00:40:43;2.45;;;2.25;;
73670;SDS011;61968;48.178;11.566;2023-05-01T00:43:10;2.05;;;1.85;;
73670;SDS011;61968;48.178;11.566;2023-05-01T00:45:37;2.33;;;2.10;;
73670;SDS011;61968;48.178;11.566;2023-05-01T00:48:05;2.65;;;2.45;;
73670;SDS011;61968;48.178;11.566;2023-05-01T00:50:31;2.53;;;2.05;;
73670;SDS011;61968;48.178;11.566;2023-05-01T00:52:58;3.13;;;2.35;;
73670;SDS011;61968;48.178;11.566;2023-05-01T00:55:26;2.78;;;2.00;;
73670;SDS011;61968;48.178;11.566;2023-05-01T00:57:54;2.67;;;2.30;;
73670;SDS011;61968;48.178;11.566;2023-05-01T01:00:21;3.00;;;2.15;;
73670;SDS011;61968;48.178;11.566;2023-05-01T01:02:48;3.75;;;2.30;;
73670;SDS011;61968;48.178;11.566;2023-05-01T01:05:16;1.95;;;1.80;;
73670;SDS011;61968;48.178;11.566;2023-05-01T01:07:46;4.07;;;2.45;;
73670;SDS011;61968;48.178;11.566;2023-05-01T01:10:29;2.50;;;2.30;;
73670;SDS011;61968;48.178;11.566;2023-05-01T01:13:07;4.15;;;2.60;;
73670;SDS011;61968;48.178;11.566;2023-05-01T01:15:39;3.28;;;2.55;;
73670;SDS011;61968;48.178;11.566;2023-05-01T01:18:11;2.75;;;1.98;;
73670;SDS011;61968;48.178;11.566;2023-05-01T01:20:43;2.42;;;2.03;;
73670;SDS011;61968;48.178;11.566;2023-05-01T01:23:32;3.63;;;2.20;;
73670;SDS011;61968;48.178;11.566;2023-05-01T01:26:12;4.50;;;2.50;;
73670;SDS011;61968;48.178;11.566;2023-05-01T01:32:09;4.05;;;2.60;;
73670;SDS011;61968;48.178;11.566;2023-05-01T01:34:54;3.65;;;2.35;;
73670;SDS011;61968;48.178;11.566;2023-05-01T01:37:27;2.33;;;2.13;;
73670;SDS011;61968;48.178;11.566;2023-05-01T01:39:59;3.28;;;2.65;;
73670;SDS011;61968;48.178;11.566;2023-05-01T01:42:29;3.00;;;2.58;;
73670;SDS011;61968;48.178;11.566;2023-05-01T01:45:02;2.50;;;2.30;;
73670;SDS011;61968;48.178;11.566;2023-05-01T01:47:34;2.60;;;2.40;;
73670;SDS011;61968;48.178;11.566;2023-05-01T01:50:06;8.95;;;2.83;;
73670;SDS011;61968;48.178;11.566;2023-05-01T01:52:37;4.90;;;2.85;;
73670;SDS011;61968;48.178;11.566;2023-05-01T01:55:06;3.85;;;2.67;;
73670;SDS011;61968;48.178;11.566;2023-05-01T01:57:36;2.63;;;2.42;;
73670;SDS011;61968;48.178;11.566;2023-05-01T02:00:05;2.80;;;2.60;;
73670;SDS011;61968;48.178;11.566;2023-05-01T02:02:35;4.75;;;2.53;;
73670;SDS011;61968;48.178;11.566;2023-05-01T02:05:03;4.10;;;2.85;;
73670;SDS011;61968;48.178;11.566;2023-05-01T02:07:33;2.60;;;2.10;;
73670;SDS011;61968;48.178;11.566;2023-05-01T02:10:03;3.55;;;2.22;;
73670;SDS011;61968;48.178;11.566;2023-05-01T02:12:30;3.13;;;2.78;;
73670;SDS011;61968;48.178;11.566;2023-05-01T02:14:58;4.00;;;2.92;;
73670;SDS011;61968;48.178;11.566;2023-05-01T02:17:25;2.67;;;2.42;;
73670;SDS011;61968;48.178;11.566;2023-05-01T02:19:53;3.45;;;2.50;;
73670;SDS011;61968;48.178;11.566;2023-05-01T02:22:22;4.25;;;2.42;;
73670;SDS011;61968;48.178;11.566;2023-05-01T02:24:53;2.72;;;2.40;;
73670;SDS011;61968;48.178;11.566;2023-05-01T02:27:25;4.00;;;3.15;;
73670;SDS011;61968;48.178;11.566;2023-05-01T02:29:56;4.85;;;2.45;;
73670;SDS011;61968;48.178;11.566;2023-05-01T02:32:23;2.72;;;2.47;;
73670;SDS011;61968;48.178;11.566;2023-05-01T02:34:52;3.58;;;2.58;;
73670;SDS011;61968;48.178;11.566;2023-05-01T02:37:19;4.05;;;3.00;;
73670;SDS011;61968;48.178;11.566;2023-05-01T02:39:46;4.60;;;2.75;;
73670;SDS011;61968;48.178;11.566;2023-05-01T02:42:14;2.90;;;2.70;;
73670;SDS011;61968;48.178;11.566;2023-05-01T02:44:43;2.97;;;2.35;;
73670;SDS011;61968;48.178;11.566;2023-05-01T02:47:14;3.42;;;2.75;;
73670;SDS011;61968;48.178;11.566;2023-05-01T02:49:45;4.95;;;3.20;;
73670;SDS011;61968;48.178;11.566;2023-05-01T02:52:12;2.55;;;2.40;;
73670;SDS011;61968;48.178;11.566;2023-05-01T02:54:39;2.60;;;2.40;;
73670;SDS011;61968;48.178;11.566;2023-05-01T02:57:08;3.78;;;2.72;;
73670;SDS011;61968;48.178;11.566;2023-05-01T02:59:36;2.88;;;2.67;;
73670;SDS011;61968;48.178;11.566;2023-05-01T03:02:04;2.72;;;2.53;;
73670;SDS011;61968;48.178;11.566;2023-05-01T03:04:31;4.53;;;2.72;;
73670;SDS011;61968;48.178;11.566;2023-05-01T03:06:57;4.97;;;2.40;;
73670;SDS011;61968;48.178;11.566;2023-05-01T03:09:24;2.88;;;2.58;;
73670;SDS011;61968;48.178;11.566;2023-05-01T03:11:50;4.50;;;3.20;;
73670;SDS011;61968;48.178;11.566;2023-05-01T03:14:17;3.30;;;3.00;;
73670;SDS011;61968;48.178;11.566;2023-05-01T03:16:44;4.47;;;2.55;;
73670;SDS011;61968;48.178;11.566;2023-05-01T03:19:11;3.20;;;2.90;;
73670;SDS011;61968;48.178;11.566;2023-05-01T03:21:37;5.07;;;2.40;;
73670;SDS011;61968;48.178;11.566;2023-05-01T03:24:04;2.70;;;2.50;;
73670;SDS011;61968;48.178;11.566;2023-05-01T03:26:31;2.75;;;2.50;;
73670;SDS011;61968;48.178;11.566;2023-05-01T03:28:58;5.43;;;3.08;;
73670;SDS011;61968;48.178;11.566;2023-05-01T03:31:25;3.05;;;2.78;;
73670;SDS011;61968;48.178;11.566;2023-05-01T03:33:53;4.50;;;2.85;;
73670;SDS011;61968;48.178;11.566;2023-05-01T03:36:19;3.38;;;3.05;;
73670;SDS011;61968;48.178;11.566;2023-05-01T03:38:47;3.95;;;2.70;;
73670;SDS011;61968;48.178;11.566;2023-05-01T03:41:13;3.78;;;2.72;;
73670;SDS011;61968;48.178;11.566;2023-05-01T03:43:40;4.80;;;2.97;;
73670;SDS011;61968;48.178;11.566;2023-05-01T03:46:06;4.35;;;3.28;;
73670;SDS011;61968;48.178;11.566;2023-05-01T03:48:33;3.42;;;2.83;;
73670;SDS011;61968;48.178;11.566;2023-05-01T03:51:00;5.65;;;3.25;;
73670;SDS011;61968;48.178;11.566;2023-05-01T03:53:27;3.50;;;2.88;;
73670;SDS011;61968;48.178;11.566;2023-05-01T03:55:53;3.88;;;3.13;;
73670;SDS011;61968;48.178;11.566;2023-05-01T03:58:20;4.03;;;2.65;;
73670;SDS011;61968;48.178;11.566;2023-05-01T04:00:47;2.53;;;2.33;;
73670;SDS011;61968;48.178;11.566;2023-05-01T04:03:14;4.18;;;3.05;;
73670;SDS011;61968;48.178;11.566;2023-05-01T04:05:41;3.50;;;3.00;;
73670;SDS011;61968;48.178;11.566;2023-05-01T04:08:09;6.28;;;3.55;;
73670;SDS011;61968;48.178;11.566;2023-05-01T04:10:36;4.78;;;3.22;;
73670;SDS011;61968;48.178;11.566;2023-05-01T04:13:02;4.47;;;2.75;;
73670;SDS011;61968;48.178;11.566;2023-05-01T04:15:28;4.57;;;2.67;;
73670;SDS011;61968;48.178;11.566;2023-05-01T04:17:55;4.03;;;3.05;;
73670;SDS011;61968;48.178;11.566;2023-05-01T04:20:21;2.85;;;2.63;;
73670;SDS011;61968;48.178;11.566;2023-05-01T04:22:48;4.68;;;2.92;;
73670;SDS011;61968;48.178;11.566;2023-05-01T04:25:16;3.13;;;2.83;;
73670;SDS011;61968;48.178;11.566;2023-05-01T04:27:42;3.58;;;3.28;;
73670;SDS011;61968;48.178;11.566;2023-05-01T04:30:09;4.13;;;3.60;;
73670;SDS011;61968;48.178;11.566;2023-05-01T04:32:36;3.92;;;2.90;;
73670;SDS011;61968;48.178;11.566;2023-05-01T04:35:02;4.25;;;2.65;;
73670;SDS011;61968;48.178;11.566;2023-05-01T04:37:29;10.75;;;6.25;;
73670;SDS011;61968;48.178;11.566;2023-05-01T04:39:55;5.68;;;3.72;;
73670;SDS011;61968;48.178;11.566;2023-05-01T04:42:28;3.30;;;2.88;;
73670;SDS011;61968;48.178;11.566;2023-05-01T04:44:55;3.88;;;3.22;;
73670;SDS011;61968;48.178;11.566;2023-05-01T04:47:22;4.85;;;2.88;;
73670;SDS011;61968;48.178;11.566;2023-05-01T04:49:48;4.65;;;3.13;;
73670;SDS011;61968;48.178;11.566;2023-05-01T04:52:14;3.53;;;3.03;;
73670;SDS011;61968;48.178;11.566;2023-05-01T04:54:41;3.35;;;3.05;;
73670;SDS011;61968;48.178;11.566;2023-05-01T04:57:07;4.35;;;3.05;;
73670;SDS011;61968;48.178;11.566;2023-05-01T04:59:35;4.28;;;3.58;;
73670;SDS011;61968;48.178;11.566;2023-05-01T05:02:02;3.05;;;2.80;;
73670;SDS011;61968;48.178;11.566;2023-05-01T05:04:29;6.95;;;3.42;;
73670;SDS011;61968;48.178;11.566;2023-05-01T05:06:55;4.30;;;3.53;;
73670;SDS011;61968;48.178;11.566;2023-05-01T05:09:22;5.15;;;3.47;;
73670;SDS011;61968;48.178;11.566;2023-05-01T05:11:48;3.97;;;3.58;;
73670;SDS011;61968;48.178;11.566;2023-05-01T05:14:15;6.18;;;3.72;;
73670;SDS011;61968;48.178;11.566;2023-05-01T05:16:43;3.15;;;2.85;;
73670;SDS011;61968;48.178;11.566;2023-05-01T05:19:09;5.72;;;3.28;;
73670;SDS011;61968;48.178;11.566;2023-05-01T05:21:36;3.47;;;2.97;;
73670;SDS011;61968;48.178;11.566;2023-05-01T05:24:02;4.18;;;3.22;;
73670;SDS011;61968;48.178;11.566;2023-05-01T05:26:29;4.60;;;3.45;;
73670;SDS011;61968;48.178;11.566;2023-05-01T05:28:55;3.85;;;2.80;;
73670;SDS011;61968;48.178;11.566;2023-05-01T05:31:21;3.13;;;2.70;;
73670;SDS011;61968;48.178;11.566;2023-05-01T05:33:49;4.90;;;3.60;;
73670;SDS011;61968;48.178;11.566;2023-05-01T05:36:16;9.35;;;3.40;;
73670;SDS011;61968;48.178;11.566;2023-05-01T05:38:42;3.35;;;3.05;;
73670;SDS011;61968;48.178;11.566;2023-05-01T05:41:09;3.75;;;3.30;;
73670;SDS011;61968;48.178;11.566;2023-05-01T05:43:35;4.35;;;3.60;;
73670;SDS011;61968;48.178;11.566;2023-05-01T05:46:02;4.30;;;3.42;;
73670;SDS011;61968;48.178;11.566;2023-05-01T05:48:29;3.33;;;2.85;;
73670;SDS011;61968;48.178;11.566;2023-05-01T05:50:56;3.70;;;2.80;;
73670;SDS011;61968;48.178;11.566;2023-05-01T05:53:23;8.55;;;3.75;;
73670;SDS011;61968;48.178;11.566;2023-05-01T05:55:50;3.75;;;3.42;;
73670;SDS011;61968;48.178;11.566;2023-05-01T05:58:17;3.88;;;3.47;;
73670;SDS011;61968;48.178;11.566;2023-05-01T06:00:45;4.18;;;3.78;;
73670;SDS011;61968;48.178;11.566;2023-05-01T06:03:12;3.05;;;2.85;;
73670;SDS011;61968;48.178;11.566;2023-05-01T06:05:39;5.28;;;3.63;;
73670;SDS011;61968;48.178;11.566;2023-05-01T06:08:07;8.43;;;5.18;;
73670;SDS011;61968;48.178;11.566;2023-05-01T06:10:36;7.03;;;3.70;;
73670;SDS011;61968;48.178;11.566;2023-05-01T06:13:03;5.10;;;3.65;;
73670;SDS011;61968;48.178;11.566;2023-05-01T06:15:30;4.68;;;3.88;;
73670;SDS011;61968;48.178;11.566;2023-05-01T06:17:56;3.55;;;3.08;;
73670;SDS011;61968;48.178;11.566;2023-05-01T06:20:23;6.72;;;3.60;;
73670;SDS011;61968;48.178;11.566;2023-05-01T06:22:49;107.70;;;55.95;;
73670;SDS011;61968;48.178;11.566;2023-05-01T06:25:17;97.97;;;53.53;;
73670;SDS011;61968;48.178;11.566;2023-05-01T06:27:45;114.80;;;59.40;;
73670;SDS011;61968;48.178;11.566;2023-05-01T06:30:12;64.85;;;31.70;;
73670;SDS011;61968;48.178;11.566;2023-05-01T06:32:38;33.72;;;19.52;;
73670;SDS011;61968;48.178;11.566;2023-05-01T06:35:06;24.08;;;14.35;;
73670;SDS011;61968;48.178;11.566;2023-05-01T06:37:33;27.48;;;12.05;;
73670;SDS011;61968;48.178;11.566;2023-05-01T06:39:59;18.85;;;7.45;;
73670;SDS011;61968;48.178;11.566;2023-05-01T06:42:27;11.75;;;6.90;;
73670;SDS011;61968;48.178;11.566;2023-05-01T06:44:54;9.05;;;5.13;;
73670;SDS011;61968;48.178;11.566;2023-05-01T06:47:20;8.88;;;4.97;;
73670;SDS011;61968;48.178;11.566;2023-05-01T06:49:47;4.72;;;3.50;;
73670;SDS011;61968;48.178;11.566;2023-05-01T06:52:13;4.18;;;3.67;;
73670;SDS011;61968;48.178;11.566;2023-05-01T06:54:40;6.93;;;3.33;;
73670;SDS011;61968;48.178;11.566;2023-05-01T06:57:06;4.50;;;2.88;;
73670;SDS011;61968;48.178;11.566;2023-05-01T06:59:34;4.07;;;3.28;;
73670;SDS011;61968;48.178;11.566;2023-05-01T07:02:00;6.40;;;3.15;;
73670;SDS011;61968;48.178;11.566;2023-05-01T07:04:27;6.50;;;3.70;;
73670;SDS011;61968;48.178;11.566;2023-05-01T07:06:53;5.00;;;2.88;;
73670;SDS011;61968;48.178;11.566;2023-05-01T07:09:20;6.20;;;3.10;;
73670;SDS011;61968;48.178;11.566;2023-05-01T07:11:46;3.35;;;3.00;;
73670;SDS011;61968;48.178;11.566;2023-05-01T07:14:13;3.72;;;3.08;;
73670;SDS011;61968;48.178;11.566;2023-05-01T07:16:41;4.22;;;3.03;;
73670;SDS011;61968;48.178;11.566;2023-05-01T07:19:08;6.72;;;3.72;;
73670;SDS011;61968;48.178;11.566;2023-05-01T07:21:34;3.60;;;3.30;;
73670;SDS011;61968;48.178;11.566;2023-05-01T07:24:01;5.53;;;3.45;;
73670;SDS011;61968;48.178;11.566;2023-05-01T07:26:27;4.93;;;3.95;;
73670;SDS011;61968;48.178;11.566;2023-05-01T07:28:54;7.93;;;3.03;;
73670;SDS011;61968;48.178;11.566;2023-05-01T07:31:20;5.57;;;3.80;;
73670;SDS011;61968;48.178;11.566;2023-05-01T07:33:48;6.05;;;3.45;;
73670;SDS011;61968;48.178;11.566;2023-05-01T07:36:15;13.27;;;3.80;;
73670;SDS011;61968;48.178;11.566;2023-05-01T07:38:44;5.43;;;3.28;;
73670;SDS011;61968;48.178;11.566;2023-05-01T07:41:10;3.78;;;3.42;;
73670;SDS011;61968;48.178;11.566;2023-05-01T07:43:37;4.63;;;3.10;;
73670;SDS011;61968;48.178;11.566;2023-05-01T07:46:03;4.57;;;2.80;;
73670;SDS011;61968;48.178;11.566;2023-05-01T07:48:30;4.57;;;3.22;;
73670;SDS011;61968;48.178;11.566;2023-05-01T07:51:01;4.75;;;3.92;;
73670;SDS011;61968;48.178;11.566;2023-05-01T07:53:28;4.80;;;3.45;;
73670;SDS011;61968;48.178;11.566;2023-05-01T07:56:03;3.78;;;3.10;;
73670;SDS011;61968;48.178;11.566;2023-05-01T07:58:30;5.00;;;3.42;;
73670;SDS011;61968;48.178;11.566;2023-05-01T08:00:56;3.88;;;3.38;;
73670;SDS011;61968;48.178;11.566;2023-05-01T08:03:23;6.22;;;3.63;;
73670;SDS011;61968;48.178;11.566;2023-05-01T08:05:49;6.43;;;3.28;;
73670;SDS011;61968;48.178;11.566;2023-05-01T08:08:17;4.47;;;3.03;;
73670;SDS011;61968;48.178;11.566;2023-05-01T08:10:45;8.30;;;3.88;;
73670;SDS011;61968;48.178;11.566;2023-05-01T08:13:11;5.45;;;3.53;;
73670;SDS011;61968;48.178;11.566;2023-05-01T08:15:38;6.55;;;3.75;;
73670;SDS011;61968;48.178;11.566;2023-05-01T08:18:06;3.17;;;2.72;;
73670;SDS011;61968;48.178;11.566;2023-05-01T08:20:34;4.30;;;2.95;;
73670;SDS011;61968;48.178;11.566;2023-05-01T08:23:01;5.22;;;3.10;;
73670;SDS011;61968;48.178;11.566;2023-05-01T08:25:29;3.47;;;3.17;;
73670;SDS011;61968;48.178;11.566;2023-05-01T08:27:56;4.00;;;3.30;;
73670;SDS011;61968;48.178;11.566;2023-05-01T08:30:22;3.83;;;3.35;;
73670;SDS011;61968;48.178;11.566;2023-05-01T08:32:50;6.18;;;3.00;;
73670;SDS011;61968;48.178;11.566;2023-05-01T08:35:16;4.22;;;3.40;;
73670;SDS011;61968;48.178;11.566;2023-05-01T08:37:43;5.53;;;3.42;;
73670;SDS011;61968;48.178;11.566;2023-05-01T08:40:10;30.02;;;15.55;;
73670;SDS011;61968;48.178;11.566;2023-05-01T08:42:38;17.45;;;9.93;;
73670;SDS011;61968;48.178;11.566;2023-05-01T08:45:06;9.80;;;6.18;;
73670;SDS011;61968;48.178;11.566;2023-05-01T08:47:34;20.45;;;8.75;;
73670;SDS011;61968;48.178;11.566;2023-05-01T08:50:02;5.97;;;4.43;;
73670;SDS011;61968;48.178;11.566;2023-05-01T08:52:29;6.28;;;3.80;;
73670;SDS011;61968;48.178;11.566;2023-05-01T08:54:58;9.80;;;6.28;;
73670;SDS011;61968;48.178;11.566;2023-05-01T08:57:25;11.65;;;5.00;;
73670;SDS011;61968;48.178;11.566;2023-05-01T08:59:55;5.57;;;4.97;;
73670;SDS011;61968;48.178;11.566;2023-05-01T09:02:23;6.90;;;4.13;;
73670;SDS011;61968;48.178;11.566;2023-05-01T09:04:52;10.52;;;4.80;;
73670;SDS011;61968;48.178;11.566;2023-05-01T09:07:19;8.50;;;5.10;;
73670;SDS011;61968;48.178;11.566;2023-05-01T09:09:46;6.18;;;5.07;;
73670;SDS011;61968;48.178;11.566;2023-05-01T09:12:15;10.57;;;5.55;;
73670;SDS011;61968;48.178;11.566;2023-05-01T09:14:48;8.13;;;4.80;;
73670;SDS011;61968;48.178;11.566;2023-05-01T09:17:16;8.00;;;4.45;;
73670;SDS011;61968;48.178;11.566;2023-05-01T09:19:43;7.18;;;4.78;;
73670;SDS011;61968;48.178;11.566;2023-05-01T09:22:10;8.63;;;4.07;;
73670;SDS011;61968;48.178;11.566;2023-05-01T09:24:37;5.32;;;3.40;;
73670;SDS011;61968;48.178;11.566;2023-05-01T09:27:04;7.53;;;3.60;;
73670;SDS011;61968;48.178;11.566;2023-05-01T09:29:37;5.47;;;3.78;;
73670;SDS011;61968;48.178;11.566;2023-05-01T09:32:14;6.00;;;4.03;;
73670;SDS011;61968;48.178;11.566;2023-05-01T09:34:43;6.15;;;3.78;;
73670;SDS011;61968;48.178;11.566;2023-05-01T09:37:11;3.97;;;3.67;;
73670;SDS011;61968;48.178;11.566;2023-05-01T09:39:39;8.63;;;3.70;;
73670;SDS011;61968;48.178;11.566;2023-05-01T09:42:06;4.10;;;3.20;;
73670;SDS011;61968;48.178;11.566;2023-05-01T09:44:39;4.20;;;3.53;;
73670;SDS011;61968;48.178;11.566;2023-05-01T09:47:06;5.22;;;4.07;;
73670;SDS011;61968;48.178;11.566;2023-05-01T09:49:45;3.67;;;2.88;;
73670;SDS011;61968;48.178;11.566;2023-05-01T09:52:13;2.90;;;2.60;;
73670;SDS011;61968;48.178;11.566;2023-05-01T09:54:40;9.27;;;3.38;;
73670;SDS011;61968;48.178;11.566;2023-05-01T09:57:07;4.38;;;3.65;;
73670;SDS011;61968;48.178;11.566;2023-05-01T09:59:34;3.35;;;3.05;;
73670;SDS011;61968;48.178;11.566;2023-05-01T10:02:01;4.20;;;3.47;;
73670;SDS011;61968;48.178;11.566;2023-05-01T10:04:30;7.65;;;5.45;;
73670;SDS011;61968;48.178;11.566;2023-05-01T10:07:09;4.95;;;4.30;;
73670;SDS011;61968;48.178;11.566;2023-05-01T10:09:37;6.40;;;4.07;;
73670;SDS011;61968;48.178;11.566;2023-05-01T10:12:05;4.40;;;3.63;;
73670;SDS011;61968;48.178;11.566;2023-05-01T10:14:32;8.30;;;4.53;;
73670;SDS011;61968;48.178;11.566;2023-05-01T10:17:06;5.80;;;4.40;;
73670;SDS011;61968;48.178;11.566;2023-05-01T10:19:42;4.80;;;4.30;;
73670;SDS011;61968;48.178;11.566;2023-05-01T10:22:10;6.88;;;5.13;;
73670;SDS011;61968;48.178;11.566;2023-05-01T10:24:37;10.27;;;5.20;;
73670;SDS011;61968;48.178;11.566;2023-05-01T10:27:05;4.88;;;4.32;;
73670;SDS011;61968;48.178;11.566;2023-05-01T10:29:33;5.53;;;3.78;;
73670;SDS011;61968;48.178;11.566;2023-05-01T10:32:01;4.90;;;4.00;;
73670;SDS011;61968;48.178;11.566;2023-05-01T10:34:30;8.13;;;4.50;;
73670;SDS011;61968;48.178;11.566;2023-05-01T10:37:01;7.03;;;4.93;;
73670;SDS011;61968;48.178;11.566;2023-05-01T10:39:33;7.60;;;5.18;;
73670;SDS011;61968;48.178;11.566;2023-05-01T10:42:01;7.38;;;4.63;;
73670;SDS011;61968;48.178;11.566;2023-05-01T10:44:29;7.60;;;4.50;;
73670;SDS011;61968;48.178;11.566;2023-05-01T10:46:56;6.93;;;5.47;;
73670;SDS011;61968;48.178;11.566;2023-05-01T10:49:23;7.43;;;5.10;;
73670;SDS011;61968;48.178;11.566;2023-05-01T10:51:59;7.30;;;4.85;;
73670;SDS011;61968;48.178;11.566;2023-05-01T10:54:28;6.65;;;4.28;;
73670;SDS011;61968;48.178;11.566;2023-05-01T10:56:57;7.93;;;5.40;;
73670;SDS011;61968;48.178;11.566;2023-05-01T10:59:25;10.80;;;6.43;;
73670;SDS011;61968;48.178;11.566;2023-05-01T11:01:52;9.10;;;5.43;;
73670;SDS011;61968;48.178;11.566;2023-05-01T11:07:20;6.80;;;5.18;;
73670;SDS011;61968;48.178;11.566;2023-05-01T11:09:48;5.88;;;5.03;;
73670;SDS011;61968;48.178;11.566;2023-05-01T11:15:24;7.78;;;5.40;;
73670;SDS011;61968;48.178;11.566;2023-05-01T11:17:52;6.05;;;5.05;;
73670;SDS011;61968;48.178;11.566;2023-05-01T11:23:16;6.75;;;5.18;;
73670;SDS011;61968;48.178;11.566;2023-05-01T11:25:47;7.07;;;5.40;;
73670;SDS011;61968;48.178;11.566;2023-05-01T11:28:18;7.57;;;5.40;;
73670;SDS011;61968;48.178;11.566;2023-05-01T11:30:46;9.77;;;5.75;;
73670;SDS011;61968;48.178;11.566;2023-05-01T11:33:13;10.05;;;6.53;;
73670;SDS011;61968;48.178;11.566;2023-05-01T11:35:54;13.88;;;8.00;;
73670;SDS011;61968;48.178;11.566;2023-05-01T11:38:22;8.40;;;6.70;;
73670;SDS011;61968;48.178;11.566;2023-05-01T11:40:51;7.72;;;5.70;;
73670;SDS011;61968;48.178;11.566;2023-05-01T11:43:21;6.65;;;5.22;;
73670;SDS011;61968;48.178;11.566;2023-05-01T11:45:48;8.90;;;7.43;;
73670;SDS011;61968;48.178;11.566;2023-05-01T11:48:19;6.57;;;5.55;;
73670;SDS011;61968;48.178;11.566;2023-05-01T11:50:46;9.57;;;6.95;;
73670;SDS011;61968;48.178;11.566;2023-05-01T11:53:13;8.55;;;5.97;;
73670;SDS011;61968;48.178;11.566;2023-05-01T11:55:40;12.35;;;6.78;;
73670;SDS011;61968;48.178;11.566;2023-05-01T11:58:07;7.32;;;5.68;;
73670;SDS011;61968;48.178;11.566;2023-05-01T12:00:36;9.43;;;7.50;;
73670;SDS011;61968;48.178;11.566;2023-05-01T12:03:04;8.50;;;6.72;;
73670;SDS011;61968;48.178;11.566;2023-05-01T12:05:32;8.18;;;5.90;;
73670;SDS011;61968;48.178;11.566;2023-05-01T12:08:11;14.27;;;7.45;;
73670;SDS011;61968;48.178;11.566;2023-05-01T12:10:39;8.38;;;6.00;;
73670;SDS011;61968;48.178;11.566;2023-05-01T12:13:07;7.53;;;5.60;;
73670;SDS011;61968;48.178;11.566;2023-05-01T12:15:36;8.27;;;6.47;;
73670;SDS011;61968;48.178;11.566;2023-05-01T12:18:05;11.15;;;7.18;;
73670;SDS011;61968;48.178;11.566;2023-05-01T12:20:35;8.77;;;6.63;;
73670;SDS011;61968;48.178;11.566;2023-05-01T12:23:02;5.82;;;4.18;;
73670;SDS011;61968;48.178;11.566;2023-05-01T12:25:30;6.78;;;5.88;;
73670;SDS011;61968;48.178;11.566;2023-05-01T12:27:58;8.88;;;6.93;;
73670;SDS011;61968;48.178;11.566;2023-05-01T12:30:25;7.35;;;6.38;;
73670;SDS011;61968;48.178;11.566;2023-05-01T12:32:55;9.23;;;6.65;;
73670;SDS011;61968;48.178;11.566;2023-05-01T12:35:27;7.78;;;5.43;;
73670;SDS011;61968;48.178;11.566;2023-05-01T12:37:54;7.32;;;6.32;;
73670;SDS011;61968;48.178;11.566;2023-05-01T12:40:21;7.68;;;5.65;;
73670;SDS011;61968;48.178;11.566;2023-05-01T12:42:52;8.15;;;5.45;;
73670;SDS011;61968;48.178;11.566;2023-05-01T12:45:19;15.57;;;6.00;;
73670;SDS011;61968;48.178;11.566;2023-05-01T12:47:46;9.10;;;6.53;;
73670;SDS011;61968;48.178;11.566;2023-05-01T12:50:14;7.78;;;6.15;;
73670;SDS011;61968;48.178;11.566;2023-05-01T12:52:41;9.02;;;6.28;;
73670;SDS011;61968;48.178;11.566;2023-05-01T12:55:08;9.50;;;6.43;;
73670;SDS011;61968;48.178;11.566;2023-05-01T12:57:38;9.70;;;6.45;;
73670;SDS011;61968;48.178;11.566;2023-05-01T13:00:16;9.35;;;6.47;;
73670;SDS011;61968;48.178;11.566;2023-05-01T13:02:44;10.40;;;7.75;;
73670;SDS011;61968;48.178;11.566;2023-05-01T13:05:11;6.78;;;5.80;;
73670;SDS011;61968;48.178;11.566;2023-05-01T13:07:39;8.30;;;6.15;;
73670;SDS011;61968;48.178;11.566;2023-05-01T13:10:13;7.20;;;5.93;;
73670;SDS011;61968;48.178;11.566;2023-05-01T13:12:43;7.63;;;5.15;;
73670;SDS011;61968;48.178;11.566;2023-05-01T13:15:17;6.93;;;5.65;;
73670;SDS011;61968;48.178;11.566;2023-05-01T13:17:45;7.40;;;5.95;;
73670;SDS011;61968;48.178;11.566;2023-05-01T13:20:11;7.25;;;5.80;;
73670;SDS011;61968;48.178;11.566;2023-05-01T13:22:40;6.00;;;5.40;;
73670;SDS011;61968;48.178;11.566;2023-05-01T13:25:13;7.63;;;5.55;;
73670;SDS011;61968;48.178;11.566;2023-05-01T13:27:44;5.95;;;5.10;;
73670;SDS011;61968;48.178;11.566;2023-05-01T13:30:13;6.97;;;5.70;;
73670;SDS011;61968;48.178;11.566;2023-05-01T13:32:40;10.93;;;6.75;;
73670;SDS011;61968;48.178;11.566;2023-05-01T13:35:06;8.63;;;5.15;;
73670;SDS011;61968;48.178;11.566;2023-05-01T13:37:33;8.27;;;5.75;;
73670;SDS011;61968;48.178;11.566;2023-05-01T13:40:02;9.02;;;6.28;;
73670;SDS011;61968;48.178;11.566;2023-05-01T13:42:28;7.85;;;6.20;;
73670;SDS011;61968;48.178;11.566;2023-05-01T13:44:56;5.75;;;4.72;;
73670;SDS011;61968;48.178;11.566;2023-05-01T13:47:23;10.05;;;6.05;;
73670;SDS011;61968;48.178;11.566;2023-05-01T13:49:51;6.50;;;5.20;;
73670;SDS011;61968;48.178;11.566;2023-05-01T13:52:18;6.20;;;5.35;;
73670;SDS011;61968;48.178;11.566;2023-05-01T13:54:46;10.73;;;6.72;;
73670;SDS011;61968;48.178;11.566;2023-05-01T13:57:14;6.35;;;5.65;;
73670;SDS011;61968;48.178;11.566;2023-05-01T13:59:41;6.65;;;5.95;;
73670;SDS011;61968;48.178;11.566;2023-05-01T14:02:14;7.18;;;5.35;;
73670;SDS011;61968;48.178;11.566;2023-05-01T14:04:45;6.95;;;5.10;;
73670;SDS011;61968;48.178;11.566;2023-05-01T14:07:12;7.88;;;6.50;;
73670;SDS011;61968;48.178;11.566;2023-05-01T14:09:43;8.57;;;5.32;;
73670;SDS011;61968;48.178;11.566;2023-05-01T14:12:11;10.90;;;5.45;;
73670;SDS011;61968;48.178;11.566;2023-05-01T14:14:42;7.30;;;5.35;;
73670;SDS011;61968;48.178;11.566;2023-05-01T14:17:12;7.68;;;6.78;;
73670;SDS011;61968;48.178;11.566;2023-05-01T14:19:39;9.32;;;5.45;;
73670;SDS011;61968;48.178;11.566;2023-05-01T14:22:06;9.23;;;5.15;;
73670;SDS011;61968;48.178;11.566;2023-05-01T14:24:34;7.32;;;6.00;;
73670;SDS011;61968;48.178;11.566;2023-05-01T14:27:01;6.40;;;5.80;;
73670;SDS011;61968;48.178;11.566;2023-05-01T14:29:28;6.57;;;5.18;;
73670;SDS011;61968;48.178;11.566;2023-05-01T14:31:57;6.43;;;5.22;;
73670;SDS011;61968;48.178;11.566;2023-05-01T14:34:28;9.23;;;5.95;;
73670;SDS011;61968;48.178;11.566;2023-05-01T14:36:54;8.35;;;5.72;;
73670;SDS011;61968;48.178;11.566;2023-05-01T14:39:22;5.88;;;4.93;;
73670;SDS011;61968;48.178;11.566;2023-05-01T14:41:48;6.10;;;4.78;;
73670;SDS011;61968;48.178;11.566;2023-05-01T14:44:17;7.00;;;6.07;;
73670;SDS011;61968;48.178;11.566;2023-05-01T14:46:45;5.90;;;4.82;;
73670;SDS011;61968;48.178;11.566;2023-05-01T14:49:17;5.63;;;4.63;;
73670;SDS011;61968;48.178;11.566;2023-05-01T14:51:45;6.00;;;5.20;;